Time;durP1;ratioP1;P1;durP2;ratioP2;P2;SDS_P1;SDS_P2;PMS_P1;PMS_P2;Temp;Humidity;BMP_temperature;BMP_pressure;BME280_temperature;BME280_humidity;BME280_pressure;Samples;Min_cycle;Max_cycle;Signal;HPM_P1;HPM_P2
2021/03/09 13:01:31;;;;;;;3.15;2.67;;;;;;;3.07;54.09;99445.83;1793183;78;22663;-64
2021/03/09 13:04:00;;;;;;;3.95;2.62;;;;;;;3.13;53.68;99456.00;1767434;80;20925;-62
2021/03/09 13:06:31;;;;;;;12.13;6.92;;;;;;;3.10;53.34;99452.01;1768218;80;21485;-65
2021/03/09 13:09:02;;;;;;;7.03;4.70;;;;;;;3.00;52.90;99446.08;1770053;81;21556;-61
2021/03/09 13:11:31;;;;;;;6.20;3.58;;;;;;;2.82;52.48;99445.52;1718919;82;21500;-65
2021/03/09 13:14:00;;;;;;;4.50;3.02;;;;;;;2.64;52.82;99451.48;1717515;82;21491;-62
2021/03/09 13:16:28;;;;;;;5.83;4.00;;;;;;;2.48;53.03;99455.34;1709735;82;21468;-62
2021/03/09 13:18:57;;;;;;;4.22;3.42;;;;;;;2.32;53.57;99450.05;1710119;83;21521;-62
2021/03/09 13:21:26;;;;;;;4.50;3.77;;;;;;;2.26;54.28;99456.78;1710014;83;20957;-63
2021/03/09 13:23:56;;;;;;;9.05;5.30;;;;;;;2.17;54.29;99456.08;1709327;84;20944;-62
2021/03/09 13:26:25;;;;;;;10.08;5.35;;;;;;;2.10;54.37;99456.72;1697249;84;21611;-63
2021/03/09 13:28:53;;;;;;;6.85;4.58;;;;;;;2.08;54.59;99458.39;1681616;84;20974;-63
2021/03/09 13:31:22;;;;;;;5.65;3.77;;;;;;;2.02;55.20;99462.09;1696756;84;21548;-63
2021/03/09 13:33:52;;;;;;;5.35;3.90;;;;;;;1.94;55.50;99464.86;1710115;84;21599;-63
2021/03/09 13:36:21;;;;;;;4.90;3.72;;;;;;;1.88;56.14;99470.30;1710058;82;20943;-63
2021/03/09 13:38:49;;;;;;;5.50;3.27;;;;;;;1.84;56.75;99461.92;1710071;82;21496;-63
2021/03/09 13:41:18;;;;;;;5.70;4.10;;;;;;;1.75;57.18;99467.23;1710098;84;20899;-63
2021/03/09 13:43:47;;;;;;;7.70;5.37;;;;;;;1.66;57.28;99465.20;1720826;82;21493;-62
2021/03/09 13:46:15;;;;;;;7.45;4.62;;;;;;;1.65;57.85;99466.04;1720834;82;21506;-63
2021/03/09 13:48:45;;;;;;;4.37;3.15;;;;;;;1.66;58.09;99465.63;1720842;82;20944;-64
2021/03/09 13:51:14;;;;;;;3.85;2.98;;;;;;;1.68;58.25;99464.84;1720811;82;21079;-63
2021/03/09 13:53:43;;;;;;;3.55;2.67;;;;;;;1.68;58.85;99460.94;1720841;82;21517;-63
2021/03/09 13:56:12;;;;;;;5.87;3.67;;;;;;;1.71;59.40;99462.34;1709143;82;21379;-63
2021/03/09 13:58:41;;;;;;;5.28;3.15;;;;;;;1.78;60.06;99456.94;1691611;83;21002;-64
2021/03/09 14:12:54;;;;;;;6.22;2.55;;;;;;;2.87;58.79;99453.08;1756166;80;22865;-68
2021/03/09 14:15:26;;;;;;;3.12;2.77;;;;;;;2.91;57.96;99458.84;1730075;83;21606;-68
2021/03/09 14:17:55;;;;;;;3.62;2.77;;;;;;;2.82;57.43;99462.03;1729900;83;21383;-68
2021/03/09 14:20:26;;;;;;;4.95;3.17;;;;;;;2.69;56.89;99459.02;1741075;81;21001;-68
2021/03/09 14:22:57;;;;;;;3.87;2.55;;;;;;;2.52;56.41;99470.23;1738419;82;21581;-68
2021/03/09 14:25:26;;;;;;;6.50;3.30;;;;;;;2.33;56.51;99475.67;1737645;82;21030;-68
2021/03/09 14:27:55;;;;;;;4.67;2.80;;;;;;;2.10;56.42;99470.61;1737842;82;21504;-68
2021/03/09 14:30:24;;;;;;;2.65;2.17;;;;;;;1.93;56.81;99474.80;1737895;82;22285;-68
2021/03/09 14:32:53;;;;;;;4.92;3.02;;;;;;;1.79;57.25;99474.31;1737779;82;21110;-68
2021/03/09 14:35:22;;;;;;;5.83;2.75;;;;;;;1.70;57.19;99473.58;1737774;82;21513;-68
2021/03/09 14:37:54;;;;;;;3.62;2.72;;;;;;;1.66;57.33;99469.11;1737769;82;21497;-68
2021/03/09 14:40:24;;;;;;;5.62;3.37;;;;;;;1.58;57.58;99470.56;1737812;82;21508;-68
2021/03/09 14:42:53;;;;;;;4.92;2.92;;;;;;;1.51;57.78;99470.77;1737853;82;22271;-68
2021/03/09 14:45:23;;;;;;;3.62;2.55;;;;;;;1.46;58.33;99467.13;1737713;82;20963;-68
2021/03/09 14:47:52;;;;;;;3.35;2.52;;;;;;;1.42;58.10;99463.95;1737814;82;20955;-68
2021/03/09 14:50:21;;;;;;;3.35;2.15;;;;;;;1.41;58.02;99461.27;1737889;82;21513;-68
2021/03/09 14:52:50;;;;;;;4.42;2.00;;;;;;;1.36;57.91;99461.52;1737777;82;21007;-68
2021/03/09 14:55:21;;;;;;;2.95;2.05;;;;;;;1.33;57.99;99461.00;1733591;81;22233;-69
2021/03/09 14:57:51;;;;;;;7.20;2.62;;;;;;;1.28;57.88;99469.46;1736274;82;20949;-68
2021/03/09 15:00:21;;;;;;;4.62;2.77;;;;;;;1.20;58.26;99470.48;1738206;82;21152;-68
2021/03/09 15:02:53;;;;;;;3.00;2.20;;;;;;;1.08;58.36;99476.13;1738190;82;21143;-68
2021/03/09 15:05:21;;;;;;;2.80;2.05;;;;;;;0.98;58.18;99480.93;1734364;82;21148;-68
2021/03/09 15:07:50;;;;;;;2.67;1.98;;;;;;;0.90;58.71;99475.01;1733741;81;21393;-68
2021/03/09 15:10:21;;;;;;;2.37;1.90;;;;;;;0.89;59.40;99473.23;1753550;80;21592;-67
2021/03/09 15:12:50;;;;;;;3.67;1.98;;;;;;;0.83;59.76;99478.62;1772314;80;20998;-68
2021/03/09 15:15:20;;;;;;;2.77;2.35;;;;;;;0.81;60.09;99483.75;1747357;81;21032;-68
2021/03/09 15:17:48;;;;;;;4.03;2.75;;;;;;;0.80;60.55;99484.59;1743098;81;21137;-68
2021/03/09 15:20:20;;;;;;;3.87;3.02;;;;;;;0.76;60.93;99490.91;1787441;80;22353;-69
2021/03/09 15:22:49;;;;;;;2.27;2.00;;;;;;;0.71;61.74;99485.95;1763043;80;21108;-68
2021/03/09 15:25:17;;;;;;;2.00;1.75;;;;;;;0.68;62.34;99488.42;1720370;83;21557;-68
2021/03/09 15:27:48;;;;;;;2.77;2.10;;;;;;;0.66;62.88;99487.07;1727212;81;21141;-68
2021/03/09 15:30:19;;;;;;;2.75;1.92;;;;;;;0.64;63.71;99490.02;1679943;81;21550;-68
2021/03/09 15:32:48;;;;;;;3.37;2.12;;;;;;;0.62;64.41;99486.48;1771106;81;21154;-67
2021/03/09 15:35:18;;;;;;;3.80;2.22;;;;;;;0.58;64.99;99488.08;1771061;81;20996;-68
2021/03/09 15:37:48;;;;;;;3.17;2.08;;;;;;;0.51;65.85;99487.78;1771164;81;21013;-67
2021/03/09 15:40:18;;;;;;;3.22;2.15;;;;;;;0.48;66.86;99493.73;1771242;81;21131;-68
2021/03/09 15:42:47;;;;;;;3.37;1.92;;;;;;;0.45;67.85;99486.21;1771143;81;21116;-68
2021/03/09 15:45:16;;;;;;;3.90;2.45;;;;;;;0.44;68.54;99497.00;1771165;81;21199;-68
2021/03/09 15:47:46;;;;;;;2.62;2.30;;;;;;;0.42;69.14;99502.55;1771172;81;21602;-68
2021/03/09 15:50:16;;;;;;;4.78;2.33;;;;;;;0.36;69.54;99504.02;1757752;81;21568;-68
2021/03/09 15:52:46;;;;;;;5.40;2.90;;;;;;;0.32;70.22;99508.20;1726224;82;21003;-68
2021/03/09 15:55:15;;;;;;;6.42;4.20;;;;;;;0.29;70.88;99515.45;1740024;82;21042;-66
2021/03/09 15:57:45;;;;;;;7.58;5.28;;;;;;;0.28;71.46;99511.08;1740099;82;21212;-66
2021/03/09 16:00:15;;;;;;;8.13;4.47;;;;;;;0.27;71.68;99511.91;1740029;82;20972;-67
2021/03/09 16:02:46;;;;;;;7.42;5.30;;;;;;;0.25;72.00;99517.86;1739989;82;21074;-67
2021/03/09 16:05:17;;;;;;;6.85;3.70;;;;;;;0.25;72.02;99521.34;1740117;82;21006;-66
2021/03/09 16:07:46;;;;;;;6.33;4.22;;;;;;;0.26;71.95;99524.82;1740133;82;21210;-67
2021/03/09 16:10:16;;;;;;;5.55;3.98;;;;;;;0.26;72.50;99523.11;1762234;80;21378;-67
2021/03/09 16:12:46;;;;;;;7.15;4.08;;;;;;;0.26;73.13;99532.61;1777364;80;20994;-66
2021/03/09 16:15:15;;;;;;;6.58;3.55;;;;;;;0.23;73.53;99528.17;1756605;81;21596;-67
2021/03/09 16:17:46;;;;;;;5.62;3.30;;;;;;;0.23;73.85;99537.26;1736076;81;21504;-67
2021/03/09 16:20:16;;;;;;;4.75;3.80;;;;;;;0.20;74.19;99536.25;1736174;81;21116;-67
2021/03/09 16:22:45;;;;;;;6.42;4.22;;;;;;;0.17;74.51;99536.13;1736085;81;21211;-67
2021/03/09 16:25:15;;;;;;;6.95;4.28;;;;;;;0.16;74.56;99544.73;1736018;81;21500;-67
2021/03/09 16:27:43;;;;;;;7.10;4.85;;;;;;;0.13;74.29;99545.90;1755144;81;21502;-67
2021/03/09 16:30:14;;;;;;;7.03;4.85;;;;;;;0.14;74.29;99554.16;1759039;81;21176;-67
2021/03/09 16:32:43;;;;;;;10.23;6.45;;;;;;;0.13;74.58;99553.68;1740140;82;20951;-67
2021/03/09 16:35:13;;;;;;;12.15;7.62;;;;;;;0.12;74.64;99556.69;1740088;82;22209;-67
2021/03/09 16:37:41;;;;;;;18.20;9.38;;;;;;;0.14;74.76;99564.53;1739965;82;21508;-67
2021/03/09 16:40:13;;;;;;;17.82;10.38;;;;;;;0.15;74.79;99566.30;1739905;82;20968;-67
2021/03/09 16:42:42;;;;;;;15.25;9.08;;;;;;;0.15;74.69;99568.89;1740018;82;20947;-67
2021/03/09 16:45:15;;;;;;;12.82;6.67;;;;;;;0.15;74.90;99571.48;1740079;82;21544;-67
2021/03/09 16:47:44;;;;;;;9.83;5.12;;;;;;;0.12;74.89;99569.66;1739807;82;21518;-67
2021/03/09 16:50:13;;;;;;;14.43;7.85;;;;;;;0.08;74.94;99575.95;1740025;82;20959;-67
2021/03/09 16:52:42;;;;;;;12.28;6.12;;;;;;;0.05;75.12;99574.11;1740098;82;21525;-67
2021/03/09 16:55:12;;;;;;;6.50;4.47;;;;;;;0.01;75.04;99576.52;1740036;82;20973;-67
2021/03/09 16:57:41;;;;;;;15.85;4.40;;;;;;;-0.02;74.80;99581.13;1740111;82;20936;-67
2021/03/09 17:00:13;;;;;;;7.42;4.65;;;;;;;-0.04;74.76;99580.17;1739762;82;21272;-67
2021/03/09 17:02:44;;;;;;;7.25;4.12;;;;;;;-0.08;74.55;99591.23;1739978;82;21086;-66
2021/03/09 17:05:14;;;;;;;6.22;3.50;;;;;;;-0.09;74.74;99593.36;1769641;81;20945;-67
2021/03/09 17:07:43;;;;;;;8.65;5.50;;;;;;;-0.11;74.70;99593.70;1771194;81;21523;-67
2021/03/09 17:10:12;;;;;;;8.53;6.05;;;;;;;-0.13;74.71;99592.75;1771233;81;20929;-67
2021/03/09 17:12:41;;;;;;;10.90;6.30;;;;;;;-0.16;74.56;99599.98;1769768;81;22138;-67
2021/03/09 17:15:32;;;;;;;12.15;6.95;;;;;;;-0.17;74.48;99602.11;1768145;81;21519;-68
2021/03/09 17:18:01;;;;;;;14.23;7.78;;;;;;;-0.17;74.66;99606.41;1742855;82;21479;-67
2021/03/09 17:20:31;;;;;;;16.67;8.48;;;;;;;-0.18;75.02;99611.11;1742835;82;21083;-68
2021/03/09 17:23:01;;;;;;;22.22;12.68;;;;;;;-0.19;75.02;99610.64;1741581;82;21217;-73
2021/03/09 17:25:31;;;;;;;27.52;12.50;;;;;;;-0.21;75.19;99613.16;1742556;82;22358;-66
2021/03/09 17:28:00;;;;;;;23.32;10.75;;;;;;;-0.21;75.29;99619.64;1742569;82;21032;-65
2021/03/09 17:30:29;;;;;;;14.83;9.15;;;;;;;-0.22;75.56;99626.05;1742524;82;21033;-67
2021/03/09 17:33:00;;;;;;;17.77;8.85;;;;;;;-0.22;75.87;99619.16;1740802;82;21024;-65
2021/03/09 17:35:29;;;;;;;18.48;9.90;;;;;;;-0.24;76.37;99625.99;1742515;82;21047;-64
2021/03/09 17:37:58;;;;;;;18.87;9.45;;;;;;;-0.27;76.76;99631.04;1742760;82;21498;-70
2021/03/09 17:40:27;;;;;;;18.30;8.18;;;;;;;-0.30;77.05;99625.72;1742587;82;21701;-68
2021/03/09 17:42:56;;;;;;;9.90;5.40;;;;;;;-0.28;77.32;99630.97;1745863;81;20953;-63
2021/03/09 17:45:27;;;;;;;6.20;3.47;;;;;;;-0.28;77.81;99638.75;1753157;81;21077;-65
2021/03/09 17:47:58;;;;;;;5.28;2.90;;;;;;;-0.28;78.36;99638.75;1745204;81;21148;-64
2021/03/09 17:50:29;;;;;;;7.40;2.40;;;;;;;-0.30;78.79;99637.38;1750274;81;21603;-64
2021/03/09 17:53:00;;;;;;;3.35;2.30;;;;;;;-0.30;79.01;99636.09;1737543;81;21174;-68
2021/03/09 17:55:30;;;;;;;4.60;2.52;;;;;;;-0.29;79.46;99644.75;1737497;81;21015;-62
2021/03/09 17:58:01;;;;;;;3.72;2.40;;;;;;;-0.32;79.93;99645.50;1734959;81;21021;-65
2021/03/09 18:00:31;;;;;;;6.25;2.90;;;;;;;-0.38;79.96;99647.41;1750530;81;21598;-65
2021/03/09 18:03:00;;;;;;;10.23;5.95;;;;;;;-0.40;80.13;99651.64;1742735;81;21385;-64
2021/03/09 18:05:30;;;;;;;17.85;10.55;;;;;;;-0.38;80.61;99651.71;1735320;81;21278;-64
2021/03/09 18:07:59;;;;;;;24.98;11.80;;;;;;;-0.36;81.10;99653.96;1735707;82;21130;-64
2021/03/09 18:10:50;;;;;;;28.12;13.13;;;;;;;-0.36;81.72;99654.84;1745522;81;21060;-64
2021/03/09 18:13:18;;;;;;;25.37;12.30;;;;;;;-0.37;81.94;99650.48;1779503;79;20988;-63
2021/03/09 18:15:47;;;;;;;27.35;11.95;;;;;;;-0.40;82.07;99647.75;1745025;81;21370;-65
2021/03/09 18:18:17;;;;;;;28.85;12.95;;;;;;;-0.42;82.37;99642.91;1763134;80;21112;-65
2021/03/09 18:20:46;;;;;;;26.90;10.78;;;;;;;-0.42;82.83;99642.02;1762283;81;21615;-64
2021/03/09 18:23:16;;;;;;;13.50;5.55;;;;;;;-0.42;83.21;99645.91;1766545;80;21056;-65
2021/03/09 18:25:44;;;;;;;7.12;3.70;;;;;;;-0.42;83.19;99645.91;1762901;80;21479;-64
2021/03/09 18:28:13;;;;;;;5.33;3.30;;;;;;;-0.41;83.70;99654.16;1737745;81;21136;-64
2021/03/09 18:30:43;;;;;;;4.12;3.00;;;;;;;-0.42;83.87;99650.69;1738128;81;21078;-65
2021/03/09 18:33:13;;;;;;;4.03;2.52;;;;;;;-0.42;84.31;99651.09;1738074;81;21522;-66
2021/03/09 18:35:43;;;;;;;4.03;2.62;;;;;;;-0.41;84.89;99648.98;1758196;80;21505;-65
2021/03/09 18:38:12;;;;;;;3.92;2.45;;;;;;;-0.44;85.21;99652.32;1771327;79;21164;-64
2021/03/09 18:40:41;;;;;;;3.50;2.35;;;;;;;-0.45;85.34;99644.48;1762718;80;21162;-64
2021/03/09 18:43:12;;;;;;;3.60;2.47;;;;;;;-0.47;85.25;99652.59;1764188;81;21150;-66
2021/03/09 18:45:42;;;;;;;4.97;2.75;;;;;;;-0.47;85.40;99655.19;1762144;80;21054;-64
2021/03/09 18:48:12;;;;;;;4.03;2.75;;;;;;;-0.51;85.45;99651.94;1763698;81;21577;-65
2021/03/09 18:50:43;;;;;;;3.75;2.90;;;;;;;-0.56;85.60;99654.73;1761615;80;21076;-64
2021/03/09 18:53:12;;;;;;;3.87;2.75;;;;;;;-0.65;85.73;99657.38;1766809;80;21338;-65
2021/03/09 18:55:43;;;;;;;3.85;2.52;;;;;;;-0.70;85.91;99657.58;1758393;80;21154;-64
2021/03/09 18:58:11;;;;;;;4.03;2.75;;;;;;;-0.76;86.05;99659.89;1741786;82;21127;-66
2021/03/09 19:00:40;;;;;;;5.08;3.20;;;;;;;-0.78;86.21;99664.11;1743824;81;21202;-67
2021/03/09 19:03:10;;;;;;;5.28;2.72;;;;;;;-0.82;86.43;99670.38;1742225;82;21190;-67
2021/03/09 19:05:41;;;;;;;4.25;2.67;;;;;;;-0.84;86.84;99672.00;1762106;79;21376;-66
2021/03/09 19:08:14;;;;;;;7.15;2.98;;;;;;;-0.83;87.32;99674.66;1776784;79;21155;-65
2021/03/09 19:10:45;;;;;;;4.17;3.10;;;;;;;-0.82;87.77;99677.73;1774008;79;21264;-63
2021/03/09 19:13:15;;;;;;;7.78;4.10;;;;;;;-0.81;88.08;99684.69;1773532;79;21109;-65
2021/03/09 19:15:48;;;;;;;4.75;3.17;;;;;;;-0.80;88.24;99684.28;1770165;81;21162;-67
2021/03/09 19:18:24;;;;;;;;;;;;;;;-0.79;88.62;99690.83;1748328;81;21215;-64
2021/03/09 19:20:54;;;;;;;5.37;3.65;;;;;;;-0.77;88.90;99693.49;1769367;80;21860;-66
2021/03/09 19:23:25;;;;;;;8.70;4.37;;;;;;;-0.78;88.87;99695.60;1772589;80;21132;-65
2021/03/09 19:25:57;;;;;;;7.12;3.85;;;;;;;-0.79;88.87;99705.48;1768484;80;21131;-66
2021/03/09 19:28:27;;;;;;;8.45;4.40;;;;;;;-0.78;89.04;99704.27;1769250;80;21139;-66
2021/03/09 19:30:58;;;;;;;7.78;4.22;;;;;;;-0.75;89.18;99704.41;1766930;80;21203;-65
2021/03/09 19:33:31;;;;;;;7.97;5.12;;;;;;;-0.74;89.46;99707.47;1767222;80;21059;-65
2021/03/09 19:36:00;;;;;;;8.80;5.17;;;;;;;-0.69;89.87;99705.09;1765302;80;21476;-64
2021/03/09 19:38:32;;;;;;;11.18;5.75;;;;;;;-0.70;90.26;99710.69;1772575;79;21154;-64
2021/03/09 19:41:03;;;;;;;10.35;6.30;;;;;;;-0.69;90.61;99707.69;1774325;80;21561;-64
2021/03/09 19:43:36;;;;;;;10.18;5.83;;;;;;;-0.69;90.89;99708.58;1769131;80;21254;-64
2021/03/09 19:46:07;;;;;;;9.68;6.12;;;;;;;-0.67;91.14;99708.23;1774187;80;21494;-63
2021/03/09 19:48:39;;;;;;;11.12;5.90;;;;;;;-0.67;91.44;99708.66;1767719;80;21044;-63
2021/03/09 19:51:12;;;;;;;9.85;6.15;;;;;;;-0.70;91.63;99705.91;1771269;79;21082;-63
2021/03/09 19:53:44;;;;;;;9.30;6.05;;;;;;;-0.70;91.62;99710.69;1768317;79;21159;-63
2021/03/09 19:56:14;;;;;;;9.15;6.10;;;;;;;-0.70;91.72;99708.50;1765365;80;21381;-63
2021/03/09 19:58:45;;;;;;;12.58;5.92;;;;;;;-0.71;91.85;99710.20;1778439;79;21012;-63
2021/03/09 20:01:15;;;;;;;9.68;6.30;;;;;;;-0.73;92.07;99713.54;1778074;79;21020;-63
2021/03/09 20:03:47;;;;;;;9.90;5.05;;;;;;;-0.74;92.07;99713.06;1777058;79;21566;-63
2021/03/09 20:06:17;;;;;;;8.98;5.53;;;;;;;-0.75;92.18;99719.95;1780365;79;21157;-64
2021/03/09 20:08:48;;;;;;;8.85;5.85;;;;;;;-0.75;92.24;99714.77;1769747;80;21330;-65
2021/03/09 20:11:18;;;;;;;9.05;5.62;;;;;;;-0.75;92.18;99718.66;1751229;81;21135;-63
2021/03/09 20:13:48;;;;;;;9.68;5.40;;;;;;;-0.77;92.16;99711.63;1732492;81;21558;-64
2021/03/09 20:16:17;;;;;;;9.83;5.53;;;;;;;-0.78;92.21;99714.62;1713207;82;21167;-64
2021/03/09 20:18:48;;;;;;;12.25;4.92;;;;;;;-0.78;92.17;99720.21;1755054;81;21128;-64
2021/03/09 20:21:19;;;;;;;9.13;5.28;;;;;;;-0.80;92.21;99722.73;1735832;82;21216;-64
2021/03/09 20:23:49;;;;;;;8.25;5.00;;;;;;;-0.84;92.15;99716.92;1710396;83;21148;-64
2021/03/09 20:26:20;;;;;;;7.65;4.87;;;;;;;-0.86;92.19;99718.55;1710742;82;21013;-64
2021/03/09 20:28:51;;;;;;;8.60;4.28;;;;;;;-0.90;92.10;99719.22;1715291;82;21217;-60
2021/03/09 20:31:21;;;;;;;6.72;4.25;;;;;;;-0.92;92.21;99722.14;1764897;81;21146;-63
2021/03/09 20:33:52;;;;;;;7.22;4.08;;;;;;;-0.92;92.26;99719.96;1732735;82;21389;-64
2021/03/09 20:36:23;;;;;;;5.28;3.70;;;;;;;-0.94;92.20;99719.89;1726819;83;21104;-63
2021/03/09 20:38:53;;;;;;;10.00;3.40;;;;;;;-0.97;91.77;99719.70;1732596;81;20957;-64
2021/03/09 20:41:23;;;;;;;4.62;3.50;;;;;;;-1.02;91.43;99714.30;1745185;81;21530;-64
2021/03/09 20:43:53;;;;;;;5.78;3.45;;;;;;;-1.04;91.28;99720.22;1737405;81;20944;-64
2021/03/09 20:46:24;;;;;;;5.10;3.52;;;;;;;-1.08;91.08;99719.19;1740076;81;22135;-64
2021/03/09 20:48:58;;;;;;;5.33;3.65;;;;;;;-1.10;90.85;99721.22;1739310;81;20977;-64
2021/03/09 20:51:34;;;;;;;5.78;3.77;;;;;;;-1.13;90.82;99724.55;1737104;81;21166;-64
2021/03/09 20:54:06;;;;;;;5.10;3.80;;;;;;;-1.13;90.88;99719.77;1711073;83;21029;-64
2021/03/09 20:56:38;;;;;;;6.78;3.72;;;;;;;-1.14;90.81;99718.89;1781263;80;20957;-64
2021/03/09 20:59:11;;;;;;;5.25;3.65;;;;;;;-1.15;90.68;99720.11;1765574;80;21374;-64
2021/03/09 21:01:44;;;;;;;5.67;3.72;;;;;;;-1.21;91.02;99725.88;1759684;81;21591;-64
2021/03/09 21:04:16;;;;;;;5.70;3.67;;;;;;;-1.22;90.78;99728.39;1756898;81;21250;-64
2021/03/09 21:06:49;;;;;;;5.28;3.83;;;;;;;-1.28;90.49;99725.97;1723226;83;21159;-64
2021/03/09 21:09:19;;;;;;;5.90;4.58;;;;;;;-1.32;90.38;99729.22;1732328;82;21138;-64
2021/03/09 21:11:50;;;;;;;9.45;6.55;;;;;;;-1.36;90.50;99728.59;1723719;82;22266;-64
2021/03/09 21:14:20;;;;;;;8.55;5.78;;;;;;;-1.40;90.62;99731.84;1739301;80;21215;-64
2021/03/09 21:16:51;;;;;;;7.30;5.25;;;;;;;-1.45;90.88;99731.98;1739426;82;21147;-64
2021/03/09 21:19:24;;;;;;;6.50;4.92;;;;;;;-1.42;91.32;99733.83;1761348;81;21036;-64
2021/03/09 21:21:56;;;;;;;6.87;4.90;;;;;;;-1.44;90.80;99735.05;1777669;80;21048;-64
2021/03/09 21:24:29;;;;;;;7.67;4.67;;;;;;;-1.43;90.74;99733.34;1778628;80;20978;-65
2021/03/09 21:26:58;;;;;;;7.08;5.15;;;;;;;-1.42;90.57;99730.88;1746220;82;21121;-64
2021/03/09 21:29:28;;;;;;;8.00;5.15;;;;;;;-1.36;90.29;99728.59;1778710;80;20946;-64
2021/03/09 21:31:59;;;;;;;8.73;4.85;;;;;;;-1.30;89.73;99731.89;1746278;81;21072;-64
2021/03/09 21:34:31;;;;;;;8.50;5.05;;;;;;;-1.28;89.32;99726.38;1774361;80;20988;-64
2021/03/09 21:37:02;;;;;;;6.53;4.80;;;;;;;-1.24;89.35;99730.01;1772602;80;21424;-64
2021/03/09 21:39:31;;;;;;;8.95;5.50;;;;;;;-1.22;89.00;99723.20;1772577;80;20999;-64
2021/03/09 21:42:04;;;;;;;8.43;5.00;;;;;;;-1.21;88.84;99730.16;1772631;80;20995;-64
2021/03/09 21:44:38;;;;;;;6.92;5.10;;;;;;;-1.21;88.57;99727.57;1772596;80;21076;-64
2021/03/09 21:47:09;;;;;;;9.35;5.35;;;;;;;-1.22;88.36;99727.09;1772697;80;21160;-64
2021/03/09 21:49:40;;;;;;;10.20;5.62;;;;;;;-1.23;88.43;99723.61;1772639;80;21367;-65
2021/03/09 21:52:12;;;;;;;;;;;;;;;-1.22;88.46;99725.39;1775119;80;20991;-65
2021/03/09 21:54:42;;;;;;;12.20;6.92;;;;;;;-1.22;88.82;99725.80;1794266;80;20134;-64
2021/03/09 21:57:18;;;;;;;13.43;7.10;;;;;;;-1.21;89.14;99735.34;1791642;79;20927;-64
2021/03/09 21:59:49;;;;;;;12.70;7.90;;;;;;;-1.22;89.29;99733.56;1791739;80;20931;-64
2021/03/09 22:02:20;;;;;;;12.50;7.53;;;;;;;-1.23;89.32;99739.14;1791860;79;22234;-64
2021/03/09 22:04:51;;;;;;;11.55;8.10;;;;;;;-1.23;89.51;99733.08;1791644;80;21255;-64
2021/03/09 22:07:24;;;;;;;12.05;7.70;;;;;;;-1.21;89.60;99740.52;1791880;80;21038;-64
2021/03/09 22:09:55;;;;;;;11.97;8.08;;;;;;;-1.20;89.61;99738.41;1794318;80;21136;-63
2021/03/09 22:12:29;;;;;;;12.25;7.80;;;;;;;-1.18;89.66;99738.97;1794191;80;20926;-64
2021/03/09 22:14:58;;;;;;;11.00;7.60;;;;;;;-1.16;89.64;99733.86;1794259;80;21370;-64
2021/03/09 22:17:28;;;;;;;12.73;7.03;;;;;;;-1.14;89.50;99732.23;1794185;80;20903;-64
2021/03/09 22:20:01;;;;;;;10.60;6.65;;;;;;;-1.13;89.51;99734.02;1794442;79;21073;-64
2021/03/09 22:22:32;;;;;;;10.90;6.37;;;;;;;-1.14;89.26;99730.94;1793013;80;21084;-65
2021/03/09 22:25:06;;;;;;;11.03;6.30;;;;;;;-1.16;89.03;99734.75;1794440;80;20891;-64
2021/03/09 22:27:36;;;;;;;11.10;6.65;;;;;;;-1.18;89.02;99724.73;1794421;80;22125;-64
2021/03/09 22:30:08;;;;;;;11.28;6.15;;;;;;;-1.19;89.00;99729.83;1794214;80;20907;-64
2021/03/09 22:32:39;;;;;;;8.53;5.80;;;;;;;-1.24;88.77;99730.01;1794383;80;20928;-64
2021/03/09 22:35:11;;;;;;;9.45;5.45;;;;;;;-1.29;88.68;99736.25;1763791;80;20924;-64
2021/03/09 22:37:42;;;;;;;9.63;5.80;;;;;;;-1.32;88.67;99738.69;1773061;79;21534;-64
2021/03/09 22:40:13;;;;;;;8.10;5.22;;;;;;;-1.38;88.30;99737.09;1773060;79;22243;-65
2021/03/09 22:42:46;;;;;;;7.17;5.00;;;;;;;-1.43;88.13;99742.41;1773134;81;21558;-65
2021/03/09 22:45:18;;;;;;;7.12;4.67;;;;;;;-1.49;87.92;99742.98;1773093;80;20932;-62
2021/03/09 22:47:49;;;;;;;7.45;4.55;;;;;;;-1.56;87.89;99746.07;1758662;81;20977;-62
2021/03/09 22:50:20;;;;;;;6.22;4.55;;;;;;;-1.61;87.78;99743.25;1753732;81;21100;-63
2021/03/09 22:52:51;;;;;;;6.20;4.12;;;;;;;-1.64;87.66;99745.68;1767818;80;21359;-63
2021/03/09 22:55:21;;;;;;;6.15;3.92;;;;;;;-1.65;87.60;99748.19;1746201;82;21207;-63
2021/03/09 22:57:50;;;;;;;6.25;4.40;;;;;;;-1.66;87.61;99744.71;1778792;80;21028;-63
2021/03/09 23:00:25;;;;;;;6.00;4.08;;;;;;;-1.67;87.63;99745.52;1746278;81;21063;-63
2021/03/09 23:02:55;;;;;;;6.47;4.12;;;;;;;-1.68;87.79;99746.73;1746340;81;21116;-62
2021/03/09 23:05:27;;;;;;;7.12;4.53;;;;;;;-1.72;87.93;99743.52;1761141;80;21201;-62
2021/03/09 23:07:57;;;;;;;6.47;4.10;;;;;;;-1.74;88.04;99746.42;1754758;81;21131;-62
2021/03/09 23:10:28;;;;;;;6.40;4.37;;;;;;;-1.76;88.05;99745.45;1754995;81;21009;-62
2021/03/09 23:12:58;;;;;;;7.10;4.62;;;;;;;-1.77;88.20;99748.85;1754822;80;21606;-62
2021/03/09 23:15:30;;;;;;;8.18;5.58;;;;;;;-1.79;88.10;99752.66;1754966;81;21178;-63
2021/03/09 23:18:01;;;;;;;8.18;5.15;;;;;;;-1.84;87.92;99755.81;1755145;81;22276;-62
2021/03/09 23:20:36;;;;;;;6.92;4.12;;;;;;;-1.90;88.86;99764.09;1754827;81;21087;-62
2021/03/09 23:23:09;;;;;;;8.65;4.28;;;;;;;-1.89;89.67;99762.03;1754909;81;20961;-63
2021/03/09 23:25:41;;;;;;;6.55;3.95;;;;;;;-1.86;90.08;99765.18;1754863;81;20937;-62
2021/03/09 23:28:12;;;;;;;8.90;4.62;;;;;;;-1.84;90.33;99764.86;1755018;81;21111;-63
2021/03/09 23:30:42;;;;;;;7.08;4.55;;;;;;;-1.83;90.28;99772.70;1754813;81;21197;-63
2021/03/09 23:33:14;;;;;;;8.15;4.97;;;;;;;-1.84;90.08;99765.75;1758085;80;21123;-62
2021/03/09 23:35:46;;;;;;;8.73;5.05;;;;;;;-1.80;89.84;99766.80;1773002;80;20952;-63
2021/03/09 23:38:22;;;;;;;8.08;5.22;;;;;;;-1.78;89.71;99769.05;1765446;79;20944;-63
2021/03/09 23:40:53;;;;;;;7.45;4.65;;;;;;;-1.82;89.83;99764.13;1728114;81;21144;-62
2021/03/09 23:43:27;;;;;;;8.05;4.95;;;;;;;-1.84;90.30;99767.44;1734636;81;22301;-62
2021/03/09 23:46:04;;;;;;;9.43;5.10;;;;;;;-1.83;90.57;99767.52;1772425;81;20976;-63
2021/03/09 23:48:39;;;;;;;7.05;4.80;;;;;;;-1.85;90.26;99765.27;1772441;81;21769;-63
2021/03/09 23:51:10;;;;;;;7.03;5.30;;;;;;;-1.82;90.07;99761.55;1772390;81;21067;-62
2021/03/09 23:53:39;;;;;;;9.83;5.47;;;;;;;-1.82;90.26;99757.66;1772424;81;20928;-63
2021/03/09 23:56:10;;;;;;;11.20;6.33;;;;;;;-1.80;90.14;99763.80;1744852;81;22165;-63
2021/03/09 23:58:45;;;;;;;9.03;6.35;;;;;;;-1.85;89.83;99761.38;1728502;81;21012;-63
